createdAt,value
2018-08-17T00:00:20.694Z,1.00
2018-08-17T00:02:55.033Z,1.00
2018-08-17T00:05:29.389Z,1.00
2018-08-17T00:08:03.891Z,1.00
2018-08-17T00:10:38.875Z,1.00
2018-08-17T00:13:13.265Z,1.00
2018-08-17T00:15:48.614Z,1.00
2018-08-17T00:18:23.494Z,1.00
2018-08-17T00:20:57.833Z,1.00
2018-08-17T00:23:34.001Z,1.00
2018-08-17T00:26:08.611Z,1.00
2018-08-17T00:28:43.987Z,1.00
2018-08-17T00:31:18.445Z,1.00
2018-08-17T00:33:52.729Z,1.00
2018-08-17T00:36:26.979Z,1.00
2018-08-17T00:39:02.336Z,1.00
2018-08-17T00:41:36.913Z,1.00
2018-08-17T00:44:11.988Z,1.00
2018-08-17T00:46:46.308Z,1.00
2018-08-17T00:49:25.542Z,1.00
2018-08-17T00:52:00.986Z,1.00
2018-08-17T00:54:35.940Z,1.00
2018-08-17T00:57:13.287Z,1.00
2018-08-17T00:59:49.063Z,1.00
2018-08-17T01:02:24.717Z,1.00
2018-08-17T01:05:00.601Z,1.00
2018-08-17T01:07:35.572Z,1.00
2018-08-17T01:10:10.286Z,1.00
2018-08-17T01:12:44.984Z,1.00
2018-08-17T01:15:20.008Z,1.00
2018-08-17T01:17:54.722Z,1.00
2018-08-17T01:20:29.352Z,1.00
2018-08-17T01:23:03.834Z,1.00
2018-08-17T01:25:38.297Z,1.00
2018-08-17T01:28:12.627Z,1.00
2018-08-17T01:30:48.074Z,1.00
2018-08-17T01:33:22.323Z,1.00
2018-08-17T01:35:56.653Z,1.00
2018-08-17T01:38:30.762Z,1.00
2018-08-17T01:41:04.987Z,1.00
2018-08-17T01:43:39.212Z,1.00
2018-08-17T01:46:14.357Z,1.00
2018-08-17T01:48:48.804Z,1.00
2018-08-17T01:51:23.191Z,1.00
2018-08-17T01:53:57.969Z,1.00
2018-08-17T01:56:32.207Z,1.00
2018-08-17T01:59:07.367Z,1.00
2018-08-17T02:01:41.725Z,1.00
2018-08-17T02:04:15.888Z,1.00
2018-08-17T02:06:50.782Z,1.00
2018-08-17T02:09:25.757Z,1.00
2018-08-17T02:12:00.937Z,1.00
2018-08-17T02:14:36.402Z,1.00
2018-08-17T02:17:11.125Z,1.00
2018-08-17T02:19:45.675Z,1.00
2018-08-17T02:22:20.016Z,1.00
2018-08-17T02:24:54.159Z,1.00
2018-08-17T02:27:29.414Z,1.10
2018-08-17T02:30:05.066Z,1.50
2018-08-17T02:32:39.362Z,1.80
2018-08-17T02:35:14.172Z,2.10
2018-08-17T02:37:48.402Z,2.60
2018-08-17T02:40:23.739Z,3.00
2018-08-17T02:42:58.140Z,3.30
2018-08-17T02:45:32.387Z,3.40
2018-08-17T02:48:06.601Z,4.10
2018-08-17T02:50:41.565Z,4.10
2018-08-17T02:53:16.373Z,4.60
2018-08-17T02:55:50.585Z,4.80
2018-08-17T02:58:24.796Z,5.30
2018-08-17T03:01:01.488Z,5.70
2018-08-17T03:03:36.646Z,5.60
2018-08-17T03:06:11.798Z,6.30
2018-08-17T03:08:46.139Z,6.40
2018-08-17T03:11:21.472Z,6.40
2018-08-17T03:13:56.724Z,7.10
2018-08-17T03:16:30.856Z,7.40
2018-08-17T03:19:08.253Z,7.20
2018-08-17T03:21:42.505Z,7.00
2018-08-17T03:24:18.233Z,7.70
2018-08-17T03:26:53.366Z,7.90
2018-08-17T03:29:27.744Z,7.80
2018-08-17T03:32:02.117Z,7.90
2018-08-17T03:34:37.359Z,8.00
2018-08-17T03:37:11.618Z,7.90
2018-08-17T03:39:47.102Z,8.00
2018-08-17T03:42:26.545Z,7.90
2018-08-17T03:45:01.866Z,7.90
2018-08-17T03:47:36.007Z,7.90
2018-08-17T03:50:11.141Z,8.30
2018-08-17T03:52:45.347Z,8.30
2018-08-17T03:55:24.594Z,8.70
2018-08-17T03:57:59.540Z,7.90
2018-08-17T04:00:34.660Z,8.00
2018-08-17T04:03:08.984Z,7.90
2018-08-17T04:05:43.474Z,7.90
2018-08-17T04:08:19.106Z,8.20
2018-08-17T04:10:55.658Z,8.40
2018-08-17T04:13:32.233Z,8.60
2018-08-17T04:16:07.369Z,7.90
2018-08-17T04:18:46.757Z,8.10
2018-08-17T04:21:21.948Z,8.30
2018-08-17T04:23:56.442Z,8.50
2018-08-17T04:26:31.813Z,8.50
2018-08-17T04:29:07.726Z,8.00
2018-08-17T04:31:42.323Z,8.00
2018-08-17T04:34:17.130Z,8.00
2018-08-17T04:36:51.273Z,8.10
2018-08-17T04:39:26.849Z,8.70
2018-08-17T04:42:01.117Z,7.80
2018-08-17T04:44:35.376Z,7.80
2018-08-17T04:47:10.100Z,7.90
2018-08-17T04:49:45.228Z,7.50
2018-08-17T04:52:19.462Z,7.40
2018-08-17T04:54:54.364Z,7.70
2018-08-17T04:57:29.617Z,8.00
2018-08-17T05:00:06.868Z,8.10
2018-08-17T05:02:41.032Z,7.70
2018-08-17T05:05:15.235Z,7.40
2018-08-17T05:07:50.656Z,7.40
2018-08-17T05:10:26.012Z,7.10
2018-08-17T05:13:01.043Z,7.10
2018-08-17T05:15:36.298Z,7.00
2018-08-17T05:18:11.394Z,6.80
2018-08-17T05:20:49.278Z,6.50
2018-08-17T05:23:26.326Z,6.40
2018-08-17T05:26:00.413Z,6.30
2018-08-17T05:28:34.773Z,6.30
2018-08-17T05:31:10.371Z,6.20
2018-08-17T05:33:44.930Z,6.20
2018-08-17T05:36:21.473Z,6.10
2018-08-17T05:38:55.822Z,6.00
2018-08-17T05:41:30.836Z,5.80
2018-08-17T05:44:07.110Z,5.70
2018-08-17T05:46:50.665Z,5.50
2018-08-17T05:49:25.066Z,5.40
2018-08-17T05:52:03.005Z,5.20
2018-08-17T05:54:41.068Z,5.20
2018-08-17T05:57:16.231Z,5.20
2018-08-17T05:59:52.102Z,5.40
2018-08-17T06:02:27.826Z,5.30
2018-08-17T06:05:02.715Z,5.30
2018-08-17T06:07:40.445Z,4.70
2018-08-17T06:10:14.866Z,4.50
2018-08-17T06:12:49.106Z,4.70
2018-08-17T06:15:23.495Z,5.10
2018-08-17T06:17:58.453Z,5.30
2018-08-17T06:20:32.748Z,5.60
2018-08-17T06:23:08.385Z,6.00
2018-08-17T06:25:43.826Z,6.00
2018-08-17T06:28:26.149Z,5.80
2018-08-17T06:31:00.616Z,5.40
2018-08-17T06:33:35.707Z,4.40
2018-08-17T06:36:09.914Z,3.50
2018-08-17T06:38:46.823Z,2.30
2018-08-17T06:41:21.058Z,1.00
2018-08-17T06:43:58.252Z,1.00
2018-08-17T06:46:35.433Z,1.00
2018-08-17T06:49:11.032Z,1.00
2018-08-17T06:51:45.453Z,1.00
2018-08-17T06:54:20.870Z,1.00
2018-08-17T06:56:56.779Z,1.00
2018-08-17T06:59:31.621Z,1.00
2018-08-17T07:02:09.482Z,1.00
2018-08-17T07:04:45.232Z,1.00
2018-08-17T07:07:21.487Z,1.00
2018-08-17T07:10:03.742Z,1.00
2018-08-17T07:12:39.863Z,1.00
2018-08-17T07:15:14.776Z,1.20
2018-08-17T07:17:49.061Z,1.30
2018-08-17T07:20:23.305Z,2.30
2018-08-17T07:22:57.520Z,2.80
2018-08-17T07:25:32.489Z,1.80
2018-08-17T07:28:07.125Z,2.70
2018-08-17T07:30:42.265Z,2.50
2018-08-17T07:33:18.493Z,1.90
2018-08-17T07:35:53.552Z,1.00
2018-08-17T07:38:27.767Z,1.00
2018-08-17T07:41:02.059Z,1.00
2018-08-17T07:43:36.637Z,1.00
2018-08-17T07:46:11.277Z,1.00
2018-08-17T07:48:51.225Z,1.00
2018-08-17T07:51:26.592Z,1.00
2018-08-17T07:54:01.283Z,1.00
2018-08-17T07:56:35.681Z,1.00
2018-08-17T07:59:10.820Z,1.00
2018-08-17T08:01:44.989Z,1.00
2018-08-17T08:04:19.277Z,1.00
2018-08-17T08:06:54.401Z,1.00
2018-08-17T08:09:30.323Z,1.00
2018-08-17T08:12:06.408Z,1.00
2018-08-17T08:14:42.388Z,1.00
2018-08-17T08:17:19.345Z,1.00
2018-08-17T08:20:05.706Z,1.00
2018-08-17T08:22:41.046Z,1.00
2018-08-17T08:25:16.033Z,1.00
2018-08-17T08:27:50.473Z,1.00
2018-08-17T08:30:24.803Z,1.00
2018-08-17T08:32:59.846Z,1.00
2018-08-17T08:35:35.990Z,1.00
2018-08-17T08:38:10.800Z,1.00
2018-08-17T08:40:46.272Z,1.00
2018-08-17T08:43:21.741Z,1.00
2018-08-17T08:45:55.945Z,1.00
2018-08-17T08:48:30.389Z,1.00
2018-08-17T08:51:05.408Z,1.00
2018-08-17T08:53:39.940Z,1.00
2018-08-17T08:56:14.333Z,1.00
2018-08-17T08:58:49.561Z,1.00
2018-08-17T09:01:24.426Z,1.00
2018-08-17T09:03:59.617Z,1.00
2018-08-17T09:06:33.901Z,1.00
2018-08-17T09:09:09.233Z,1.00
2018-08-17T09:11:43.423Z,1.00
2018-08-17T09:14:17.617Z,1.00
2018-08-17T09:16:51.921Z,1.00
2018-08-17T09:19:26.275Z,1.00
2018-08-17T09:22:00.633Z,1.00
2018-08-17T09:24:35.011Z,1.00
2018-08-17T09:27:09.324Z,1.00
2018-08-17T09:29:43.530Z,1.00
2018-08-17T09:32:17.778Z,1.00
2018-08-17T09:34:52.107Z,1.00
2018-08-17T09:37:26.773Z,1.00
2018-08-17T09:43:05.233Z,1.00
2018-08-17T09:45:40.829Z,1.00
2018-08-17T09:48:15.107Z,1.00
2018-08-17T09:50:50.348Z,1.00
2018-08-17T09:53:24.671Z,1.00
2018-08-17T09:55:59.584Z,1.00
2018-08-17T09:58:34.271Z,1.00
2018-08-17T10:01:14.734Z,1.00
2018-08-17T10:03:55.001Z,1.00
2018-08-17T10:06:35.041Z,1.00
2018-08-17T10:09:17.898Z,1.00
2018-08-17T10:11:57.208Z,1.00
2018-08-17T10:14:32.280Z,1.00
2018-08-17T10:17:06.947Z,1.00
2018-08-17T10:19:41.711Z,1.00
2018-08-17T10:22:16.127Z,1.00
2018-08-17T10:24:50.818Z,1.00
2018-08-17T10:27:25.998Z,1.00
2018-08-17T10:30:01.569Z,1.00
2018-08-17T10:32:40.224Z,1.00
2018-08-17T10:35:37.009Z,1.00
2018-08-17T10:38:13.741Z,1.00
2018-08-17T10:40:48.760Z,1.00
2018-08-17T10:43:23.674Z,1.00
2018-08-17T10:45:58.805Z,1.00
2018-08-17T10:48:35.489Z,1.00
2018-08-17T10:51:17.236Z,1.00
2018-08-17T10:53:52.448Z,1.00
2018-08-17T10:56:29.977Z,1.00
2018-08-17T10:59:11.825Z,1.00
2018-08-17T11:01:50.910Z,1.00
2018-08-17T11:04:30.452Z,1.00
2018-08-17T11:07:12.040Z,1.00
2018-08-17T11:09:54.854Z,1.00
2018-08-17T11:15:15.995Z,1.00
2018-08-17T11:17:59.847Z,1.00
2018-08-17T11:20:36.187Z,1.00
2018-08-17T11:23:11.348Z,1.00
2018-08-17T11:25:46.681Z,1.00
2018-08-17T11:28:28.204Z,1.00
2018-08-17T11:31:05.919Z,1.00
2018-08-17T11:33:40.969Z,1.00
2018-08-17T11:36:15.517Z,1.00
2018-08-17T11:38:50.030Z,1.00
2018-08-17T11:41:26.934Z,1.00
2018-08-17T11:44:09.772Z,1.00
2018-08-17T11:46:49.945Z,1.00
2018-08-17T11:49:29.892Z,1.00
2018-08-17T11:52:08.409Z,1.00
2018-08-17T11:54:48.910Z,1.00
2018-08-17T11:57:24.940Z,1.00
2018-08-17T11:59:59.956Z,1.00
2018-08-17T12:02:34.492Z,1.00
2018-08-17T12:05:12.068Z,1.00
2018-08-17T12:07:49.293Z,1.00
2018-08-17T12:10:29.166Z,1.00
2018-08-17T12:13:14.613Z,1.00
2018-08-17T12:15:54.926Z,1.00
2018-08-17T12:18:30.628Z,1.00
2018-08-17T12:21:07.671Z,1.00
2018-08-17T12:23:43.079Z,1.00
2018-08-17T12:26:18.093Z,1.00
2018-08-17T12:28:56.963Z,1.00
2018-08-17T12:31:32.302Z,1.00
2018-08-17T12:34:08.424Z,1.00
2018-08-17T12:36:45.616Z,1.00
2018-08-17T12:39:23.621Z,1.00
2018-08-17T12:41:58.777Z,1.00
2018-08-17T12:44:38.455Z,1.00
2018-08-17T12:47:17.700Z,1.00
2018-08-17T12:50:03.178Z,1.00
2018-08-17T12:52:48.424Z,1.00
2018-08-17T12:55:30.142Z,1.00
2018-08-17T12:58:05.071Z,1.00
2018-08-17T13:00:47.329Z,1.00
2018-08-17T13:03:28.482Z,1.00
2018-08-17T13:06:03.375Z,1.00
2018-08-17T13:08:38.937Z,1.00
2018-08-17T13:11:14.101Z,1.00
2018-08-17T13:13:58.496Z,1.00
2018-08-17T13:16:40.951Z,1.00
2018-08-17T13:19:20.004Z,1.00
2018-08-17T13:21:59.574Z,1.00
2018-08-17T13:24:39.086Z,1.00
2018-08-17T13:27:25.722Z,1.00
2018-08-17T13:42:18.448Z,1.00
2018-08-17T13:45:11.017Z,1.00
2018-08-17T13:50:46.040Z,1.00
2018-08-17T13:53:26.058Z,1.00
2018-08-17T13:56:03.504Z,1.00
2018-08-17T13:58:38.517Z,1.00
2018-08-17T14:04:10.112Z,1.00
2018-08-17T14:06:47.354Z,1.00
2018-08-17T14:09:24.791Z,1.00
2018-08-17T14:12:04.398Z,1.00
2018-08-17T14:14:42.088Z,1.00
2018-08-17T14:17:18.340Z,1.00
2018-08-17T14:19:53.288Z,1.00
2018-08-17T14:22:28.487Z,1.00
2018-08-17T14:25:03.039Z,1.00
2018-08-17T14:27:37.610Z,1.00
2018-08-17T14:30:16.289Z,1.00
2018-08-17T14:32:50.987Z,1.00
2018-08-17T14:35:26.217Z,1.00
2018-08-17T14:38:01.399Z,1.00
2018-08-17T14:40:36.981Z,1.00
2018-08-17T14:43:12.082Z,1.00
2018-08-17T14:46:21.780Z,1.00
2018-08-17T14:48:59.168Z,1.00
2018-08-17T14:51:34.097Z,1.00
2018-08-17T14:54:08.807Z,1.00
2018-08-17T14:56:43.719Z,1.00
2018-08-17T14:59:18.649Z,1.00
2018-08-17T15:01:52.996Z,1.00
2018-08-17T15:04:27.372Z,1.00
2018-08-17T15:07:01.802Z,1.00
2018-08-17T15:09:41.433Z,1.00
2018-08-17T15:12:18.932Z,1.00
2018-08-17T15:14:57.664Z,1.00
2018-08-17T15:17:32.727Z,1.00
2018-08-17T15:20:09.779Z,1.00
2018-08-17T15:22:44.382Z,1.00
2018-08-17T15:25:19.432Z,1.00
2018-08-17T15:27:54.424Z,1.00
2018-08-17T15:30:28.953Z,1.00
2018-08-17T15:33:03.984Z,1.00
2018-08-17T15:35:38.523Z,1.00
2018-08-17T15:38:14.511Z,1.00
2018-08-17T15:40:55.838Z,1.00
2018-08-17T15:43:30.619Z,1.00
2018-08-17T15:46:06.878Z,1.00
2018-08-17T15:48:50.377Z,1.00
2018-08-17T15:51:25.740Z,1.00
2018-08-17T15:54:01.888Z,1.00
2018-08-17T15:56:36.854Z,1.00
2018-08-17T15:59:11.409Z,1.00
2018-08-17T16:01:47.917Z,1.00
2018-08-17T16:04:23.178Z,1.00
2018-08-17T16:07:00.793Z,1.00
2018-08-17T16:09:40.617Z,1.00
2018-08-17T16:12:26.187Z,1.00
2018-08-17T16:15:08.776Z,1.00
2018-08-17T16:17:48.733Z,1.00
2018-08-17T16:23:15.608Z,1.00
2018-08-17T16:25:50.889Z,1.00
2018-08-17T16:28:30.667Z,1.00
2018-08-17T16:31:06.175Z,1.00
2018-08-17T16:33:42.665Z,1.00
2018-08-17T16:36:24.677Z,1.00
2018-08-17T16:39:02.756Z,1.00
2018-08-17T16:41:45.459Z,1.00
2018-08-17T16:47:20.352Z,1.00
2018-08-17T16:50:01.428Z,1.00
2018-08-17T16:52:58.267Z,1.00
2018-08-17T16:55:56.001Z,1.00
2018-08-17T16:58:57.777Z,1.00
2018-08-17T17:01:40.307Z,1.00
2018-08-17T17:04:34.077Z,1.00
2018-08-17T17:07:31.997Z,1.00
2018-08-17T17:10:25.655Z,1.00
2018-08-17T17:13:31.736Z,1.00
2018-08-17T17:16:56.281Z,1.00
2018-08-17T17:19:45.143Z,1.00
2018-08-17T17:22:25.678Z,1.00
2018-08-17T17:25:14.007Z,1.00
2018-08-17T17:27:59.723Z,1.00
2018-08-17T17:31:01.603Z,1.00
2018-08-17T17:33:56.052Z,1.00
2018-08-17T17:36:34.526Z,1.00
2018-08-17T17:39:17.136Z,1.00
2018-08-17T17:41:56.610Z,1.00
2018-08-17T17:44:33.086Z,1.00
2018-08-17T17:47:16.072Z,1.00
2018-08-17T17:50:00.197Z,1.00
2018-08-17T17:52:35.917Z,1.00
2018-08-17T17:55:13.460Z,1.00
2018-08-17T17:58:01.787Z,1.00
2018-08-17T18:03:28.309Z,1.00
2018-08-17T18:06:16.355Z,1.00
2018-08-17T18:08:55.694Z,1.00
2018-08-17T18:11:37.580Z,1.00
2018-08-17T18:14:14.251Z,1.00
2018-08-17T18:16:54.552Z,1.00
2018-08-17T18:19:31.089Z,1.00
2018-08-17T18:22:06.996Z,1.00
2018-08-17T18:24:41.750Z,1.00
2018-08-17T18:27:16.453Z,1.00
2018-08-17T18:29:52.144Z,1.00
2018-08-17T18:32:28.492Z,1.00
2018-08-17T18:35:04.197Z,1.00
2018-08-17T18:37:40.320Z,1.00
2018-08-17T18:40:17.763Z,1.00
2018-08-17T18:42:56.162Z,1.00
2018-08-17T18:45:30.990Z,1.00
2018-08-17T18:48:07.534Z,1.00
2018-08-17T18:50:42.746Z,1.00
2018-08-17T18:53:20.030Z,1.00
2018-08-17T18:55:56.654Z,1.00
2018-08-17T18:58:31.742Z,1.00
2018-08-17T19:01:10.828Z,1.00
2018-08-17T19:03:46.436Z,1.00
2018-08-17T19:06:21.913Z,1.00
2018-08-17T19:08:57.318Z,1.00
2018-08-17T19:11:31.821Z,1.00
2018-08-17T19:14:25.500Z,1.00
2018-08-17T19:17:03.046Z,1.00
2018-08-17T19:19:44.342Z,1.00
2018-08-17T19:22:24.889Z,1.00
2018-08-17T19:24:59.173Z,1.00
2018-08-17T19:27:38.207Z,1.00
2018-08-17T19:30:23.459Z,1.00
2018-08-17T19:33:04.597Z,1.00
2018-08-17T19:38:30.128Z,1.00
2018-08-17T19:41:08.689Z,1.00
2018-08-17T19:43:45.583Z,1.00
2018-08-17T19:46:22.347Z,1.00
2018-08-17T19:48:58.059Z,1.00
2018-08-17T19:51:33.364Z,1.00
2018-08-17T19:54:08.319Z,1.00
2018-08-17T19:56:42.763Z,1.00
2018-08-17T19:59:23.258Z,1.00
2018-08-17T20:01:59.069Z,1.00
2018-08-17T20:04:41.986Z,1.00
2018-08-17T20:07:16.803Z,1.00
2018-08-17T20:09:54.348Z,1.00
2018-08-17T20:12:30.237Z,1.00
2018-08-17T20:15:09.807Z,1.00
2018-08-17T20:17:53.175Z,1.00
2018-08-17T20:20:32.620Z,1.00
2018-08-17T20:23:08.800Z,1.00
2018-08-17T20:25:48.271Z,1.00
2018-08-17T20:28:22.906Z,1.00
2018-08-17T20:30:57.698Z,1.00
2018-08-17T20:33:32.564Z,1.00
2018-08-17T20:36:08.212Z,1.00
2018-08-17T20:38:44.719Z,1.00
2018-08-17T20:41:34.041Z,1.00
2018-08-17T20:44:14.002Z,1.00
2018-08-17T20:46:56.517Z,1.00
2018-08-17T20:49:40.959Z,1.00
2018-08-17T20:52:20.704Z,1.00
2018-08-17T20:54:55.884Z,1.00
2018-08-17T20:57:31.877Z,1.00
2018-08-17T21:00:16.560Z,1.00
2018-08-17T21:02:55.584Z,1.00
2018-08-17T21:05:32.565Z,1.00
2018-08-17T21:08:13.259Z,1.00
2018-08-17T21:10:48.776Z,1.00
2018-08-17T21:13:26.468Z,1.00
2018-08-17T21:16:02.597Z,1.00
2018-08-17T21:18:44.541Z,1.00
2018-08-17T21:21:25.530Z,1.00
2018-08-17T21:24:03.227Z,1.00
2018-08-17T21:26:44.632Z,1.00
2018-08-17T21:32:03.371Z,1.00
2018-08-17T21:34:38.304Z,1.00
2018-08-17T21:37:13.325Z,1.00
2018-08-17T21:40:03.732Z,1.00
2018-08-17T21:42:39.989Z,1.00
2018-08-17T21:45:15.512Z,1.00
2018-08-17T21:47:51.160Z,1.00
2018-08-17T21:50:27.550Z,1.00
2018-08-17T21:53:03.798Z,1.00
2018-08-17T21:55:40.469Z,1.00
2018-08-17T21:58:18.894Z,1.00
2018-08-17T22:00:56.753Z,1.00
2018-08-17T22:03:34.699Z,1.00
2018-08-17T22:06:12.773Z,1.00
2018-08-17T22:09:07.936Z,1.00
2018-08-17T22:11:58.112Z,1.00
2018-08-17T22:14:37.047Z,1.00
2018-08-17T22:17:32.522Z,1.00
2018-08-17T22:20:11.740Z,1.00
2018-08-17T22:22:55.213Z,1.00
2018-08-17T22:25:34.105Z,1.00
2018-08-17T22:28:15.088Z,1.00
2018-08-17T22:30:54.050Z,1.00
2018-08-17T22:33:30.614Z,1.50
2018-08-17T22:36:10.544Z,2.00
2018-08-17T22:38:47.848Z,2.80
2018-08-17T22:41:23.267Z,3.20
2018-08-17T22:43:58.285Z,3.20
2018-08-17T22:46:34.591Z,3.20
2018-08-17T22:49:10.241Z,3.10
2018-08-17T22:51:45.086Z,4.00
2018-08-17T22:54:19.790Z,4.10
2018-08-17T22:56:55.037Z,4.60
2018-08-17T22:59:35.353Z,4.80
2018-08-17T23:02:16.054Z,5.40
2018-08-17T23:04:52.940Z,5.40
2018-08-17T23:07:33.719Z,5.80
2018-08-17T23:10:15.127Z,6.90
2018-08-17T23:12:54.567Z,6.80
2018-08-17T23:15:32.934Z,7.20
2018-08-17T23:18:13.201Z,8.20
2018-08-17T23:20:50.636Z,8.20
2018-08-17T23:23:31.165Z,9.00
2018-08-17T23:26:08.341Z,9.40
2018-08-17T23:28:43.866Z,9.40
2018-08-17T23:31:18.932Z,9.20
2018-08-17T23:33:53.783Z,9.40
2018-08-17T23:36:31.656Z,9.10
2018-08-17T23:39:09.763Z,9.30
2018-08-17T23:41:44.189Z,9.40
2018-08-17T23:44:20.082Z,9.50
2018-08-17T23:46:55.512Z,9.20
2018-08-17T23:49:30.710Z,9.00
2018-08-17T23:52:06.600Z,8.40
2018-08-17T23:54:41.832Z,8.20
2018-08-17T23:57:17.387Z,8.50
2018-08-17T23:59:58.781Z,9.00
